Pascagoula, MS

11:04 AM CDT on August 21, 2014 (GMT -0500)
Sea Breeze | Change Station
CLOSE
Current Station
Personal Weather Station
Location: Pascagoula, MS
Elevation: 12 ft
Nearby Weather Stations

Elev 12 ft 30.35 °N, 88.52 °W | Updated 4 minutes ago

Partly Cloudy
Partly Cloudy
89.5 °F
Feels Like 112 °F
N
0.0
Wind Variable Wind from North
Gusts 0.0 mph

Today
High -- | Low -- °F
--% Chance of Precip.
Yesterday
High -- | Low -- °F
Precip. -- in
6:24 AM 7:29 PM
Waning Crescent, 13% visible
Pressure 30.15 in
Visibility 10.0 miles
Clouds Few 3900 ft
Heat Index 112 °F
Dew Point 83 °F
Humidity 81%
Rainfall 0.00 in
Snow Depth Not available.
UV 9 out of 12
Pollen 7.80 out of 12
Ozone Good
PM2.5 Moderate
Flu Activity Not available.
METAR KPQL 211553Z 36004KT 10SM FEW039 33/24 A3015 RMK AO2 SLP210 T03280244

More Conditions Fewer Conditions

Pressure 30.15 in
Visibility 10.0 miles
Clouds Few 3900 ft
Heat Index 112 °F
Dew Point 83 °F
Humidity 81%
Rainfall 0.00 in
Snow Depth Not available.
UV 9 out of 12
Pollen 7.80 out of 12
Ozone Good
PM2.5 Moderate
Flu Activity Not available.
METAR KPQL 211553Z 36004KT 10SM FEW039 33/24 A3015 RMK AO2 SLP210 T03280244

More Conditions Fewer Conditions

10-Day Weather Forecast

Almanac

Astronomy

Aug. 21, 2014 Rise Set
Actual Time 6:24 AM CDT 7:29 PM CDT
Civil Twilight 5:59 AM CDT 7:54 PM CDT
Nautical Twilight 5:29 AM CDT 8:23 PM CDT
Astronomical Twilight 4:59 AM CDT 8:54 PM CDT
Moon 3:01 AM CDT 4:52 PM CDT
Length of Visible Light 13h 54m
Length of Day
13h 05m
Tomorrow will be 1m 41s shorter.
Waning Crescent, 13% of the Moon is Illuminated
Today
Waning Crescent
Aug 25
New
Sep 2
First Quarter
Sep 8
Full
Sep 15
Last Quarter

Today's Extremes

State Highs State Lows

Community

WunderPhotos

Upload Photos

1,745,950 photos uploaded!

Nearby

Air Quality

  Air Quality AQ Index Pollutant
Yesterday Moderate
PM2.5
Yesterday Good
OZONE
Current Moderate
PM2.5
Current Good
OZONE
Thursday Moderate
PM2.5
Thursday Good
OZONE
Friday Moderate
PM2.5
Friday Good
OZONE
Saturday Moderate
PM2.5
Saturday Good
OZONE

Snow Depth

Station Depth Elevation
No new snow has been reported.

Earthquake Activity

City Distance Mag. Time & Date
No recent earthquake activity has been reported nearby.
Minimum magnitude displayed is 2.5.

Coastal Water Temperatures

Place Temperature
No Stations Reporting

Nearby Weather Stations